»·PEaware :: N155NY KRNO-KSBP

N155NY :: KRNO-KSBP

FLIGHT INFORMATION

Flight Status: Arrived
Operator: Privately registered:
United States
More flights under this callsign
Pilot: Colin F. (19691)
Aircraft: Unknown
(EPIC)
More flights by this aircraft type
Origin: KRNO Reno/Tahoe Intl
United States
Destination: KSBP San Luis Co Regl
United States
More flights between these airports :: More routes between these airports
Route: +SPLTM4 RYANN PRB MQO
File this flight plan on PilotEdge
Remarks:
Altitude:
(Current/Filed)
25,000ft
Speed:
(Current/Filed)
316kts
Departed: 24-Nov-18 09:09 AM
Arrived: 24-Nov-18 10:18 AM
Distance/Time
Traveled:
259nm/1:09
Distance/Time
To Go:
Arrived

Flight Plot

Page will automatically refresh every two minutes.

Flight plan parsing failed; only flown route is shown


Map Options




Map Legend


Flown Route
Filed Route
Departure Airport
Arrival Airport
Navaid (VOR, NDB)
Fix

Horizontal Profiles

Position Reports

Time Latitude Longitude Heading Altitude Ground
Speed
24-Nov-18 08:55 39.504887 -119.765248 90 4419ft 0kts
24-Nov-18 08:56 39.504887 -119.765248 90 4419ft 0kts
24-Nov-18 08:57 39.504887 -119.765248 90 4419ft 0kts
24-Nov-18 08:58 39.504887 -119.765248 90 4419ft 0kts
24-Nov-18 08:59 39.504887 -119.765248 90 4419ft 0kts
24-Nov-18 09:00 39.504887 -119.765248 90 4419ft 0kts
24-Nov-18 09:01 39.504887 -119.765248 90 4419ft 0kts
24-Nov-18 09:02 39.504464 -119.764956 229 4419ft 0kts
24-Nov-18 09:03 39.504399 -119.765413 268 4419ft 3kts
24-Nov-18 09:04 39.504395 -119.765553 263 4419ft 3kts
24-Nov-18 09:05 39.499400 -119.765780 178 4419ft 26kts
24-Nov-18 09:06 39.492703 -119.765205 182 4419ft 28kts
24-Nov-18 09:07 39.489564 -119.765214 189 4419ft 0kts
24-Nov-18 09:08 39.489564 -119.765214 189 4419ft 0kts
24-Nov-18 09:09 39.489348 -119.765316 215 4419ft 8kts
24-Nov-18 09:10 39.489207 -119.765699 274 4419ft 0kts
24-Nov-18 09:11 39.489904 -119.766823 357 4419ft 23kts
24-Nov-18 09:12 39.526876 -119.766830 354 5143ft 163kts
24-Nov-18 09:13 39.572172 -119.772453 344 6330ft 166kts
24-Nov-18 09:14 39.621295 -119.783256 347 7008ft 185kts
24-Nov-18 09:15 39.652382 -119.747986 116 8099ft 223kts
24-Nov-18 09:16 39.597682 -119.717791 161 9362ft 224kts
24-Nov-18 09:17 39.546492 -119.673854 142 11064ft 208kts
24-Nov-18 09:18 39.506110 -119.626254 139 12461ft 217kts
24-Nov-18 09:19 39.462342 -119.571152 138 14002ft 224kts
24-Nov-18 09:20 39.417329 -119.513638 137 15384ft 232kts
24-Nov-18 09:21 39.370843 -119.454152 137 16632ft 239kts
24-Nov-18 09:22 39.323065 -119.393104 137 17764ft 245kts
24-Nov-18 09:23 39.274455 -119.331099 138 18770ft 250kts
24-Nov-18 09:24 39.217740 -119.293989 197 19646ft 228kts
24-Nov-18 09:25 39.156073 -119.311491 205 20452ft 227kts
24-Nov-18 09:26 39.095152 -119.334049 207 21186ft 230kts
24-Nov-18 09:27 39.033394 -119.357957 207 21845ft 233kts
24-Nov-18 09:28 38.970822 -119.382408 206 22393ft 238kts
24-Nov-18 09:29 38.906950 -119.407305 204 22917ft 242kts
24-Nov-18 09:30 38.842810 -119.432216 203 23368ft 244kts
24-Nov-18 09:31 38.777652 -119.457490 204 23768ft 246kts
24-Nov-18 09:32 38.715025 -119.481763 203 24065ft 250kts
24-Nov-18 09:33 38.642377 -119.509901 202 24073ft 297kts
24-Nov-18 09:34 38.560450 -119.541488 202 24071ft 313kts
24-Nov-18 09:35 38.479259 -119.572738 202 24075ft 316kts
24-Nov-18 09:36 38.395373 -119.604956 202 24079ft 317kts
24-Nov-18 09:37 38.311030 -119.637270 202 24083ft 317kts
24-Nov-18 09:38 38.228638 -119.668765 201 24092ft 318kts
24-Nov-18 09:39 38.157554 -119.695874 201 24100ft 318kts
24-Nov-18 09:40 38.072794 -119.728126 201 24105ft 318kts
24-Nov-18 09:41 37.988212 -119.760233 201 24118ft 318kts
24-Nov-18 09:42 37.903515 -119.792310 201 24132ft 318kts
24-Nov-18 09:43 37.819832 -119.823927 201 24124ft 318kts
24-Nov-18 09:44 37.735485 -119.855714 201 24123ft 317kts
24-Nov-18 09:45 37.650939 -119.887504 201 24122ft 317kts
24-Nov-18 09:46 37.566135 -119.919314 201 24122ft 321kts
24-Nov-18 09:47 37.480521 -119.951354 201 24125ft 322kts
24-Nov-18 09:48 37.395090 -119.983247 201 24128ft 323kts
24-Nov-18 09:49 37.309158 -120.015250 201 24128ft 323kts
24-Nov-18 09:50 37.222943 -120.047282 201 24127ft 323kts
24-Nov-18 09:51 37.137078 -120.079108 201 24129ft 323kts
24-Nov-18 09:52 37.050855 -120.111026 200 24130ft 324kts
24-Nov-18 09:53 36.964570 -120.142866 199 24130ft 326kts
24-Nov-18 09:54 36.880129 -120.173907 199 24124ft 327kts
24-Nov-18 09:55 36.793013 -120.205884 199 24123ft 326kts
24-Nov-18 09:56 36.706191 -120.237688 199 24125ft 326kts
24-Nov-18 09:57 36.627909 -120.266300 199 24125ft 326kts
24-Nov-18 09:58 36.541540 -120.297799 199 24122ft 327kts
24-Nov-18 09:59 36.451830 -120.330463 199 23224ft 347kts
24-Nov-18 10:00 36.358419 -120.364373 199 22225ft 353kts
24-Nov-18 10:01 36.264163 -120.398493 199 21228ft 355kts
24-Nov-18 10:02 36.169667 -120.432620 199 20071ft 359kts
24-Nov-18 10:03 36.073269 -120.467345 199 18582ft 364kts
24-Nov-18 10:04 35.976732 -120.502024 199 17202ft 361kts
24-Nov-18 10:05 35.885753 -120.534618 199 16184ft 356kts
24-Nov-18 10:06 35.794515 -120.567250 199 14697ft 341kts
24-Nov-18 10:07 35.704391 -120.599393 199 13180ft 337kts
24-Nov-18 10:08 35.621838 -120.628794 199 11659ft 293kts
24-Nov-18 10:09 35.547546 -120.655186 198 10181ft 280kts
24-Nov-18 10:10 35.476270 -120.680451 198 9024ft 257kts
24-Nov-18 10:11 35.407906 -120.704599 198 9013ft 255kts
24-Nov-18 10:12 35.342179 -120.727807 198 9010ft 255kts
24-Nov-18 10:13 35.272822 -120.748649 172 8721ft 271kts
24-Nov-18 10:14 35.231068 -120.678806 112 7638ft 268kts
24-Nov-18 10:15 35.183143 -120.607426 132 6146ft 269kts
24-Nov-18 10:16 35.138202 -120.545905 107 4995ft 211kts
24-Nov-18 10:17 35.169213 -120.523246 331 3542ft 169kts
24-Nov-18 10:18 35.195220 -120.569164 306 2017ft 140kts
24-Nov-18 10:19 35.215071 -120.602691 305 1075ft 125kts
24-Nov-18 10:20 35.231571 -120.631064 304 300ft 96kts
24-Nov-18 10:21 35.240433 -120.646473 307 215ft 24kts
24-Nov-18 10:22 35.240438 -120.647718 212 215ft 7kts
24-Nov-18 10:23 35.237787 -120.644800 62 215ft 0kts

Navigation Log

Ident Type
Flight plan parsing failed, navigation log unavailable